Time;durP1;ratioP1;P1;durP2;ratioP2;P2;SDS_P1;SDS_P2;PMS_P1;PMS_P2;Temp;Humidity;BMP_temperature;BMP_pressure;BME280_temperature;BME280_humidity;BME280_pressure;Samples;Min_cycle;Max_cycle;Signal;HPM_P1;HPM_P2
2021/03/08 00:00:46;;;;;;;15.00;7.88;;;5.90;93.20;;;;;;5050850;28;20029;-69
2021/03/08 00:03:13;;;;;;;11.60;7.07;;;5.80;93.10;;;;;;5049927;28;20036;-69
2021/03/08 00:05:39;;;;;;;14.68;7.72;;;5.80;93.20;;;;;;5051388;28;20414;-68
2021/03/08 00:08:05;;;;;;;12.93;7.40;;;5.80;93.30;;;;;;5049403;28;20112;-69
2021/03/08 00:10:31;;;;;;;11.35;6.82;;;5.80;93.30;;;;;;5042381;28;20394;-69
2021/03/08 00:12:57;;;;;;;12.25;6.85;;;5.80;93.20;;;;;;5050910;28;20067;-69
2021/03/08 00:15:22;;;;;;;13.15;7.53;;;5.70;93.20;;;;;;5069095;28;20334;-70
2021/03/08 00:17:48;;;;;;;12.90;6.70;;;5.70;93.40;;;;;;5063566;28;20063;-70
2021/03/08 00:20:21;;;;;;;12.15;6.93;;;5.70;93.30;;;;;;5056642;28;20043;-70
2021/03/08 00:22:46;;;;;;;13.75;8.00;;;5.70;93.40;;;;;;5033282;28;20039;-70
2021/03/08 00:25:15;;;;;;;17.90;8.07;;;5.70;93.40;;;;;;5050882;28;20482;-70
2021/03/08 00:27:41;;;;;;;12.63;6.88;;;5.70;93.40;;;;;;5050380;28;20090;-70
2021/03/08 00:30:08;;;;;;;13.40;7.15;;;5.70;93.40;;;;;;5063079;28;20128;-70
2021/03/08 00:32:34;;;;;;;13.00;6.68;;;5.70;93.40;;;;;;5050891;28;20473;-69
2021/03/08 00:35:00;;;;;;;13.52;6.97;;;5.70;93.40;;;;;;5049154;28;20044;-69
2021/03/08 00:37:30;;;;;;;14.32;6.82;;;5.70;93.50;;;;;;5051312;28;20021;-70
2021/03/08 00:40:00;;;;;;;14.70;7.32;;;5.70;93.30;;;;;;5047095;28;20033;-70
2021/03/08 00:42:26;;;;;;;9.25;6.00;;;5.80;93.30;;;;;;5054638;28;20060;-70
2021/03/08 00:44:52;;;;;;;14.70;6.57;;;5.70;93.40;;;;;;5050276;28;20114;-69
2021/03/08 00:47:19;;;;;;;12.27;6.00;;;5.80;93.40;;;;;;5051131;28;20475;-70
2021/03/08 00:49:44;;;;;;;8.85;5.32;;;5.70;93.40;;;;;;5064447;28;20398;-70
2021/03/08 00:52:10;;;;;;;12.02;5.95;;;5.70;93.20;;;;;;5051870;28;20032;-69
2021/03/08 00:54:36;;;;;;;9.75;6.00;;;5.70;93.10;;;;;;5045631;28;20032;-70
2021/03/08 00:57:01;;;;;;;10.55;5.47;;;5.60;93.20;;;;;;5048508;28;20501;-70
2021/03/08 00:59:26;;;;;;;12.77;6.93;;;5.60;93.20;;;;;;5050258;28;20040;-69
2021/03/08 01:01:52;;;;;;;13.52;6.65;;;5.70;93.10;;;;;;5064035;28;20032;-70
2021/03/08 01:04:18;;;;;;;9.38;5.65;;;5.70;93.00;;;;;;5067350;28;20033;-70
2021/03/08 01:06:43;;;;;;;12.07;6.22;;;5.70;92.90;;;;;;5057672;28;20162;-69
2021/03/08 01:09:08;;;;;;;11.75;6.30;;;5.60;92.80;;;;;;5049500;28;20044;-69
2021/03/08 01:11:37;;;;;;;10.80;6.03;;;5.70;92.80;;;;;;5051682;28;20469;-69
2021/03/08 01:14:03;;;;;;;9.63;5.82;;;5.70;92.80;;;;;;5054670;28;20040;-69
2021/03/08 01:16:28;;;;;;;10.73;5.88;;;5.70;92.80;;;;;;5059151;28;20172;-69
2021/03/08 01:18:54;;;;;;;10.40;5.28;;;5.70;92.80;;;;;;5054421;28;20025;-70
2021/03/08 01:21:20;;;;;;;12.65;5.90;;;5.70;92.80;;;;;;5060920;28;20033;-69
2021/03/08 01:23:45;;;;;;;11.90;6.13;;;5.70;92.70;;;;;;5052749;28;20028;-70
2021/03/08 01:26:11;;;;;;;9.02;5.25;;;5.60;92.80;;;;;;5053123;28;20436;-69
2021/03/08 01:28:36;;;;;;;9.68;6.25;;;5.60;92.80;;;;;;5053708;28;20021;-70
2021/03/08 01:31:02;;;;;;;11.57;6.47;;;5.60;92.80;;;;;;5060414;28;20024;-70
2021/03/08 01:33:28;;;;;;;12.38;5.68;;;5.60;92.90;;;;;;5071091;28;20044;-70
2021/03/08 01:35:53;;;;;;;11.98;5.57;;;5.60;92.90;;;;;;5043132;28;20112;-69
2021/03/08 01:38:19;;;;;;;11.38;5.38;;;5.60;92.90;;;;;;5051965;28;20075;-68
2021/03/08 01:40:44;;;;;;;9.85;5.57;;;5.60;93.10;;;;;;5057698;28;20032;-68
2021/03/08 01:43:10;;;;;;;11.63;5.72;;;5.60;93.00;;;;;;5072263;28;20036;-68
2021/03/08 01:45:37;;;;;;;7.72;5.00;;;5.60;93.00;;;;;;5057491;28;20059;-68
2021/03/08 01:48:03;;;;;;;10.70;5.10;;;5.60;92.90;;;;;;5072662;28;20031;-68
2021/03/08 01:50:42;;;;;;;11.93;5.50;;;5.70;92.90;;;;;;5067312;28;20393;-69
2021/03/08 01:53:09;;;;;;;9.95;5.65;;;5.60;92.90;;;;;;5071701;28;20027;-69
2021/03/08 01:55:36;;;;;;;8.93;4.90;;;5.60;93.10;;;;;;5040302;28;20144;-69
2021/03/08 01:58:02;;;;;;;11.40;5.32;;;5.50;92.90;;;;;;5053135;28;20037;-69
2021/03/08 02:00:29;;;;;;;9.48;5.03;;;5.50;92.80;;;;;;5055138;28;20028;-70
2021/03/08 02:02:55;;;;;;;12.15;5.15;;;5.50;92.80;;;;;;5069003;28;20017;-70
2021/03/08 02:05:27;;;;;;;11.63;4.85;;;5.50;92.80;;;;;;5054380;28;20033;-69
2021/03/08 02:07:53;;;;;;;9.07;5.00;;;5.40;92.60;;;;;;5069208;28;20067;-69
2021/03/08 02:10:20;;;;;;;10.13;5.38;;;5.40;92.60;;;;;;5053746;28;20357;-70
2021/03/08 02:12:48;;;;;;;8.45;4.43;;;5.40;92.60;;;;;;5070683;28;20107;-69
2021/03/08 02:15:38;;;;;;;10.43;4.80;;;5.30;92.60;;;;;;5052384;28;20028;-69
2021/03/08 02:18:27;;;;;;;10.43;4.50;;;5.30;92.60;;;;;;5054772;28;20033;-69
2021/03/08 02:20:55;;;;;;;7.55;4.40;;;5.20;92.50;;;;;;5052360;28;20029;-70
2021/03/08 02:23:21;;;;;;;10.05;5.20;;;5.10;92.50;;;;;;5051541;28;20040;-69
2021/03/08 02:26:32;;;;;;;9.55;4.57;;;5.00;92.60;;;;;;5057275;28;20078;-69
2021/03/08 02:29:22;;;;;;;7.40;4.68;;;4.90;92.70;;;;;;5046509;28;20082;-69
2021/03/08 02:31:51;;;;;;;9.68;4.72;;;4.90;92.80;;;;;;5051676;28;20037;-71
2021/03/08 02:34:28;;;;;;;7.53;4.53;;;4.70;92.90;;;;;;5053008;28;20036;-71
2021/03/08 02:37:07;;;;;;;8.40;4.97;;;4.70;93.00;;;;;;5063543;28;20062;-71
2021/03/08 02:39:36;;;;;;;7.40;4.78;;;4.60;93.30;;;;;;5052732;28;20029;-71
2021/03/08 02:42:05;;;;;;;13.05;5.05;;;4.50;93.40;;;;;;5049099;28;20473;-71
2021/03/08 02:44:36;;;;;;;8.60;4.70;;;4.40;93.50;;;;;;5032247;28;20037;-71
2021/03/08 02:47:02;;;;;;;11.00;5.28;;;4.40;93.50;;;;;;5051350;28;20120;-72
2021/03/08 02:49:29;;;;;;;10.27;5.32;;;4.40;93.50;;;;;;5052794;28;20512;-69
2021/03/08 02:52:01;;;;;;;10.73;5.35;;;4.30;93.60;;;;;;5059957;28;20039;-69
2021/03/08 02:54:32;;;;;;;11.40;4.85;;;4.30;93.80;;;;;;5067776;28;20032;-69
2021/03/08 02:57:01;;;;;;;8.35;4.05;;;4.20;94.00;;;;;;5053563;28;20132;-69
2021/03/08 02:59:29;;;;;;;10.52;4.40;;;4.20;93.80;;;;;;5037026;28;20041;-70
2021/03/08 03:01:55;;;;;;;7.38;3.95;;;4.10;93.80;;;;;;5045066;28;20059;-69
2021/03/08 03:04:23;;;;;;;13.13;4.50;;;4.00;94.00;;;;;;5051163;28;20039;-69
2021/03/08 03:06:50;;;;;;;9.93;3.70;;;4.00;93.70;;;;;;5051943;28;20029;-69
2021/03/08 03:09:18;;;;;;;11.40;3.85;;;4.00;93.70;;;;;;5051276;28;20491;-71
2021/03/08 03:11:48;;;;;;;7.40;3.80;;;3.90;93.50;;;;;;5050138;28;20071;-70
2021/03/08 03:14:16;;;;;;;8.68;3.78;;;3.90;93.30;;;;;;5062700;28;20040;-70
2021/03/08 03:16:43;;;;;;;7.43;2.88;;;3.90;93.20;;;;;;5047299;28;20029;-70
2021/03/08 03:19:10;;;;;;;5.32;3.00;;;3.80;93.20;;;;;;5061325;28;20081;-70
2021/03/08 03:21:37;;;;;;;8.50;3.20;;;3.80;93.00;;;;;;5052675;28;20048;-71
2021/03/08 03:24:07;;;;;;;6.82;3.17;;;3.80;93.00;;;;;;5051053;28;20047;-70
2021/03/08 03:26:33;;;;;;;9.43;3.00;;;3.80;92.90;;;;;;5034575;28;20030;-69
2021/03/08 03:29:00;;;;;;;7.22;2.80;;;3.70;93.00;;;;;;5045802;28;20064;-69
2021/03/08 03:31:26;;;;;;;6.82;3.10;;;3.70;92.70;;;;;;5051826;28;20043;-70
2021/03/08 03:33:52;;;;;;;9.90;3.03;;;3.70;92.70;;;;;;5049491;28;20025;-69
2021/03/08 03:36:19;;;;;;;8.52;3.80;;;3.60;92.70;;;;;;5045792;28;20029;-70
2021/03/08 03:38:45;;;;;;;6.13;3.20;;;3.60;92.70;;;;;;5037330;28;20040;-69
2021/03/08 03:41:12;;;;;;;7.70;3.10;;;3.50;92.80;;;;;;5051791;28;20017;-69
2021/03/08 03:43:38;;;;;;;8.55;3.10;;;3.50;92.80;;;;;;5049464;28;20034;-69
2021/03/08 03:46:04;;;;;;;6.22;3.20;;;3.40;92.90;;;;;;5052003;28;20017;-69
2021/03/08 03:48:31;;;;;;;11.10;3.30;;;3.40;92.90;;;;;;5055138;28;20146;-69
2021/03/08 03:50:57;;;;;;;8.15;3.20;;;3.40;92.90;;;;;;5058426;28;20040;-69
2021/03/08 03:53:22;;;;;;;6.22;3.55;;;3.30;92.90;;;;;;5062368;28;20025;-69
2021/03/08 03:55:48;;;;;;;8.73;2.70;;;3.30;93.00;;;;;;5050668;28;20099;-69
2021/03/08 03:58:41;;;;;;;7.65;3.30;;;3.30;93.10;;;;;;5050295;28;20501;-69
2021/03/08 04:01:21;;;;;;;7.70;3.22;;;3.20;93.10;;;;;;5050770;28;20517;-69
2021/03/08 04:04:08;;;;;;;5.60;2.63;;;3.10;93.10;;;;;;5048948;28;20032;-69
2021/03/08 04:06:41;;;;;;;5.90;3.00;;;3.00;93.10;;;;;;5051056;28;20028;-72
2021/03/08 04:09:08;;;;;;;7.45;2.78;;;3.00;93.30;;;;;;5049798;28;20029;-70
2021/03/08 04:11:37;;;;;;;9.30;3.22;;;2.90;93.30;;;;;;5051287;28;20408;-70
2021/03/08 04:14:05;;;;;;;6.55;3.72;;;2.90;93.40;;;;;;5049653;28;20033;-70
2021/03/08 04:16:31;;;;;;;9.07;3.38;;;3.00;93.40;;;;;;5049658;28;20028;-70
2021/03/08 04:19:00;;;;;;;8.10;3.40;;;2.90;93.40;;;;;;5064508;28;20489;-70
2021/03/08 04:21:26;;;;;;;7.50;3.22;;;2.90;93.30;;;;;;5052486;28;20040;-70
2021/03/08 04:23:54;;;;;;;7.30;3.20;;;2.90;93.30;;;;;;5057500;28;20021;-70
2021/03/08 04:26:20;;;;;;;5.80;2.72;;;2.80;93.40;;;;;;5071292;28;20040;-70
2021/03/08 04:28:47;;;;;;;8.02;3.05;;;2.80;93.30;;;;;;5064083;28;20033;-70
2021/03/08 04:31:13;;;;;;;5.03;2.53;;;2.90;93.30;;;;;;5071426;28;20496;-70
2021/03/08 04:33:39;;;;;;;6.57;3.00;;;2.90;93.50;;;;;;5057128;28;20060;-70
2021/03/08 04:36:06;;;;;;;7.35;2.83;;;2.90;93.60;;;;;;5049840;28;20021;-70
2021/03/08 04:38:32;;;;;;;10.90;3.13;;;2.90;93.30;;;;;;5044752;28;20026;-70
2021/03/08 04:40:58;;;;;;;7.22;3.08;;;2.90;93.20;;;;;;5030948;28;20026;-70
2021/03/08 04:43:24;;;;;;;7.13;3.05;;;2.90;93.20;;;;;;5044972;28;20044;-68
2021/03/08 04:45:54;;;;;;;9.50;3.53;;;2.90;93.10;;;;;;5072596;28;20020;-68
2021/03/08 04:48:20;;;;;;;5.32;2.90;;;2.80;93.10;;;;;;5065440;28;20071;-68
2021/03/08 04:50:49;;;;;;;6.82;2.80;;;2.80;93.10;;;;;;5066583;28;20064;-68
2021/03/08 04:53:16;;;;;;;5.78;2.92;;;2.70;93.20;;;;;;5056432;28;20025;-68
2021/03/08 04:55:42;;;;;;;6.72;3.22;;;2.70;93.30;;;;;;5055039;28;20047;-68
2021/03/08 04:58:08;;;;;;;10.00;2.80;;;2.70;93.20;;;;;;5053514;28;20095;-68
2021/03/08 05:00:34;;;;;;;6.43;2.78;;;2.70;93.20;;;;;;5054085;28;20060;-67
2021/03/08 05:03:01;;;;;;;7.85;3.08;;;2.70;93.20;;;;;;5069434;28;20120;-68
2021/03/08 05:05:26;;;;;;;7.75;2.97;;;2.60;93.20;;;;;;5072280;28;20162;-68
2021/03/08 05:08:06;;;;;;;7.10;2.83;;;2.60;93.40;;;;;;5053476;28;20462;-68
2021/03/08 05:10:34;;;;;;;4.97;2.92;;;2.60;93.10;;;;;;5070326;28;20534;-69
2021/03/08 05:13:00;;;;;;;7.22;2.85;;;2.60;93.10;;;;;;5055339;28;20158;-71
2021/03/08 05:15:27;;;;;;;6.22;2.90;;;2.60;93.10;;;;;;5053532;28;20481;-70
2021/03/08 05:17:55;;;;;;;6.63;3.17;;;2.60;93.10;;;;;;5050332;28;20507;-69
2021/03/08 05:20:22;;;;;;;7.65;4.20;;;2.50;93.10;;;;;;5075047;28;20082;-69
2021/03/08 05:22:49;;;;;;;6.68;3.17;;;2.50;93.10;;;;;;5084805;28;20101;-68
2021/03/08 05:25:14;;;;;;;7.35;3.17;;;2.50;93.20;;;;;;5052437;28;20021;-69
2021/03/08 05:27:43;;;;;;;6.70;3.75;;;2.40;93.10;;;;;;5052391;28;20032;-68
2021/03/08 05:30:13;;;;;;;8.25;2.80;;;2.40;93.20;;;;;;5056912;28;20051;-68
2021/03/08 05:32:46;;;;;;;6.15;2.80;;;2.40;93.10;;;;;;5057369;28;20115;-69
2021/03/08 05:35:12;;;;;;;5.53;2.90;;;2.50;93.10;;;;;;5057265;28;20068;-68
2021/03/08 05:37:40;;;;;;;10.48;3.33;;;2.50;93.10;;;;;;5054160;28;20499;-69
2021/03/08 05:40:20;;;;;;;7.97;3.50;;;2.50;93.10;;;;;;5041518;28;20044;-69
2021/03/08 05:42:52;;;;;;;6.30;2.75;;;2.50;93.10;;;;;;5034688;28;20029;-69
2021/03/08 05:45:19;;;;;;;6.22;2.60;;;2.50;93.10;;;;;;5049020;28;20040;-69
2021/03/08 05:48:00;;;;;;;6.78;2.78;;;2.40;93.10;;;;;;5053912;28;20035;-69
2021/03/08 05:50:47;;;;;;;6.95;2.60;;;2.40;93.10;;;;;;5037720;28;20113;-69
2021/03/08 05:53:35;;;;;;;8.05;2.90;;;2.40;93.10;;;;;;5037714;28;20476;-69
2021/03/08 05:56:20;;;;;;;4.68;3.03;;;2.40;93.10;;;;;;5034230;28;20029;-69
2021/03/08 05:59:23;;;;;;;6.97;2.83;;;2.40;93.10;;;;;;5036294;28;20401;-69
2021/03/08 06:02:10;;;;;;;6.13;3.13;;;2.40;93.10;;;;;;5053656;28;20025;-69
2021/03/08 06:05:05;;;;;;;7.30;2.70;;;2.40;93.10;;;;;;5050343;28;20389;-69
2021/03/08 06:07:47;;;;;;;7.20;2.70;;;2.40;93.00;;;;;;5053589;28;20056;-69
2021/03/08 06:10:24;;;;;;;5.78;2.65;;;2.40;92.90;;;;;;5057249;28;20430;-69
2021/03/08 06:12:54;;;;;;;9.45;4.00;;;2.40;92.90;;;;;;5052896;28;20053;-69
2021/03/08 06:15:21;;;;;;;9.52;3.33;;;2.40;92.80;;;;;;5073804;28;20500;-69
2021/03/08 06:17:49;;;;;;;8.55;3.20;;;2.40;92.80;;;;;;5063185;28;20110;-69
2021/03/08 06:20:17;;;;;;;6.78;3.00;;;2.40;92.90;;;;;;5051364;28;20025;-69
2021/03/08 06:22:44;;;;;;;6.43;2.70;;;2.40;92.90;;;;;;5050533;28;20072;-69
2021/03/08 06:25:11;;;;;;;8.18;3.38;;;2.40;92.90;;;;;;5053666;28;20112;-69
2021/03/08 06:27:37;;;;;;;7.13;2.97;;;2.40;92.90;;;;;;5053133;28;20044;-69
2021/03/08 06:30:04;;;;;;;9.55;2.80;;;2.40;92.90;;;;;;5070830;28;20045;-69
2021/03/08 06:32:30;;;;;;;6.03;2.25;;;2.40;92.80;;;;;;5072908;28;20032;-69
2021/03/08 06:34:55;;;;;;;6.78;2.42;;;2.40;92.80;;;;;;5069004;28;20078;-69
2021/03/08 06:37:25;;;;;;;7.18;2.65;;;2.40;92.70;;;;;;5066282;28;20025;-69
2021/03/08 06:39:50;;;;;;;7.03;3.33;;;2.40;92.70;;;;;;5053885;28;20032;-69
2021/03/08 06:42:17;;;;;;;7.82;3.75;;;2.40;92.70;;;;;;5052387;28;20499;-69
2021/03/08 06:44:47;;;;;;;7.13;2.40;;;2.50;92.70;;;;;;5035021;28;20521;-69
2021/03/08 06:47:13;;;;;;;5.90;2.38;;;2.40;92.70;;;;;;5059268;28;20025;-69
2021/03/08 06:49:38;;;;;;;6.05;2.30;;;2.50;92.60;;;;;;5066268;28;20037;-64
2021/03/08 06:52:05;;;;;;;7.13;2.75;;;2.50;92.50;;;;;;5065457;28;20036;-65
2021/03/08 06:54:33;;;;;;;4.50;2.47;;;2.60;92.50;;;;;;5047599;28;20507;-66
2021/03/08 06:56:59;;;;;;;5.03;2.60;;;2.60;92.40;;;;;;5044451;28;20116;-67
2021/03/08 06:59:24;;;;;;;7.05;2.55;;;2.60;92.30;;;;;;5050709;28;20178;-67
2021/03/08 07:01:52;;;;;;;6.13;2.53;;;2.60;92.30;;;;;;5051925;28;20029;-68
2021/03/08 07:04:22;;;;;;;6.03;2.60;;;2.60;92.30;;;;;;5051234;28;20156;-69
2021/03/08 07:07:05;;;;;;;5.53;2.60;;;2.60;92.40;;;;;;5051707;28;20112;-69
2021/03/08 07:09:33;;;;;;;5.75;2.67;;;2.60;92.40;;;;;;5047843;28;20036;-68
2021/03/08 07:12:06;;;;;;;8.32;2.47;;;2.70;92.30;;;;;;5051662;28;20037;-68
2021/03/08 07:14:32;;;;;;;7.57;3.17;;;2.70;92.30;;;;;;5051501;28;20036;-69
2021/03/08 07:16:58;;;;;;;7.45;2.88;;;2.80;92.30;;;;;;5052231;28;20033;-68
2021/03/08 07:19:23;;;;;;;7.50;2.72;;;2.80;92.30;;;;;;5052875;28;20040;-69
2021/03/08 07:21:53;;;;;;;6.47;2.25;;;2.80;92.20;;;;;;5051554;28;20060;-68
2021/03/08 07:24:19;;;;;;;6.60;2.53;;;2.90;92.10;;;;;;5062754;28;20035;-68
2021/03/08 07:26:50;;;;;;;6.22;2.60;;;2.80;91.90;;;;;;5067022;28;20029;-68
2021/03/08 07:29:16;;;;;;;11.55;4.80;;;2.80;91.90;;;;;;5061257;28;20048;-68
2021/03/08 07:31:50;;;;;;;8.80;3.85;;;2.90;91.90;;;;;;5053348;28;20036;-68
2021/03/08 07:34:16;;;;;;;8.40;3.55;;;2.90;91.90;;;;;;5048472;28;20182;-69
2021/03/08 07:36:44;;;;;;;7.80;3.33;;;3.00;91.90;;;;;;5046624;28;20036;-69
2021/03/08 07:39:17;;;;;;;8.48;3.20;;;3.10;91.80;;;;;;5041538;28;20029;-69
2021/03/08 07:42:09;;;;;;;6.85;2.53;;;3.10;91.70;;;;;;5059910;28;20021;-69
2021/03/08 07:44:48;;;;;;;5.13;2.50;;;3.10;91.40;;;;;;5051390;28;20040;-69
2021/03/08 07:47:20;;;;;;;8.45;2.53;;;3.10;91.30;;;;;;5043756;28;20052;-70
2021/03/08 07:49:45;;;;;;;5.20;2.28;;;3.20;91.20;;;;;;5057272;28;20045;-68
2021/03/08 07:52:13;;;;;;;7.75;2.78;;;3.20;91.20;;;;;;5060934;28;20025;-69
2021/03/08 07:54:58;;;;;;;4.50;2.50;;;3.30;90.90;;;;;;5047971;28;20665;-70
2021/03/08 07:57:26;;;;;;;3.92;2.17;;;3.30;90.90;;;;;;5051204;28;20067;-70
2021/03/08 07:59:52;;;;;;;6.43;2.50;;;3.40;90.80;;;;;;5041991;28;20044;-70
2021/03/08 08:02:18;;;;;;;5.07;2.30;;;3.40;90.40;;;;;;5050986;28;20025;-70
2021/03/08 08:04:43;;;;;;;4.93;2.10;;;3.40;90.30;;;;;;5050412;28;20120;-70
2021/03/08 08:07:11;;;;;;;4.20;2.25;;;3.40;89.60;;;;;;5051121;28;20021;-70
2021/03/08 08:09:40;;;;;;;4.50;2.47;;;3.40;89.00;;;;;;5054694;28;20033;-70
2021/03/08 08:12:10;;;;;;;6.93;3.00;;;3.40;89.20;;;;;;5059023;28;20036;-70
2021/03/08 08:14:39;;;;;;;5.78;2.42;;;3.40;88.90;;;;;;5038306;28;20116;-70
2021/03/08 08:17:07;;;;;;;6.05;2.13;;;3.50;89.00;;;;;;5040975;28;20064;-69
2021/03/08 08:19:36;;;;;;;8.77;2.45;;;3.60;89.20;;;;;;5042965;28;20037;-69
2021/03/08 08:22:02;;;;;;;6.90;2.40;;;3.60;89.00;;;;;;5043282;28;20021;-69
2021/03/08 08:24:28;;;;;;;4.43;1.85;;;3.60;87.20;;;;;;5050639;28;20473;-70
2021/03/08 08:26:55;;;;;;;6.55;2.30;;;3.70;87.70;;;;;;5050539;28;20029;-70
2021/03/08 08:29:26;;;;;;;5.05;1.95;;;3.80;87.70;;;;;;5036184;28;20045;-70
2021/03/08 08:32:00;;;;;;;7.40;2.00;;;3.80;87.20;;;;;;5051580;28;20378;-69
2021/03/08 08:34:32;;;;;;;3.00;1.65;;;3.80;85.40;;;;;;5048651;28;20090;-69
2021/03/08 08:37:14;;;;;;;5.65;2.42;;;3.90;85.50;;;;;;5048111;28;20123;-69
2021/03/08 08:40:04;;;;;;;3.47;1.70;;;3.90;83.50;;;;;;5047200;28;20036;-69
2021/03/08 08:42:30;;;;;;;4.05;1.65;;;3.90;81.80;;;;;;5050909;28;20037;-69
2021/03/08 08:44:57;;;;;;;4.75;1.52;;;3.90;75.60;;;;;;5067111;28;20107;-69
2021/03/08 08:47:30;;;;;;;6.85;1.83;;;3.90;76.80;;;;;;5070776;28;20384;-69
2021/03/08 08:49:58;;;;;;;4.32;1.90;;;3.80;76.00;;;;;;5066355;28;20051;-69
2021/03/08 08:52:44;;;;;;;5.90;2.17;;;3.90;77.50;;;;;;5054006;28;20029;-70
2021/03/08 08:55:11;;;;;;;2.97;1.42;;;3.90;77.20;;;;;;5055397;28;20044;-69
2021/03/08 08:57:37;;;;;;;4.57;1.95;;;3.90;75.30;;;;;;5049736;28;20107;-69
2021/03/08 09:00:17;;;;;;;3.75;1.90;;;4.00;72.60;;;;;;5050415;28;20037;-70
2021/03/08 09:02:43;;;;;;;4.00;1.40;;;4.00;72.70;;;;;;5050212;28;20051;-68
2021/03/08 09:05:27;;;;;;;2.80;1.30;;;4.00;71.40;;;;;;5047079;28;20025;-71
2021/03/08 09:08:21;;;;;;;3.05;1.50;;;4.10;71.40;;;;;;5049932;28;20463;-69
2021/03/08 09:10:46;;;;;;;2.90;1.17;;;4.00;69.10;;;;;;5047587;28;20071;-69
2021/03/08 09:13:12;;;;;;;6.15;1.77;;;4.10;71.30;;;;;;5036520;28;20114;-69
2021/03/08 09:15:37;;;;;;;3.45;1.27;;;4.10;70.00;;;;;;5048795;28;20115;-69
2021/03/08 09:18:04;;;;;;;2.13;1.17;;;4.20;70.20;;;;;;5060973;28;20048;-69
2021/03/08 09:20:30;;;;;;;3.20;1.38;;;4.30;71.40;;;;;;5036070;28;20029;-70
2021/03/08 09:23:01;;;;;;;5.00;1.55;;;4.30;68.70;;;;;;5047548;28;20033;-68
2021/03/08 09:25:27;;;;;;;3.55;1.30;;;4.30;66.70;;;;;;5044645;28;20470;-69
2021/03/08 09:27:58;;;;;;;3.78;1.50;;;4.40;66.90;;;;;;5048326;28;20098;-74
2021/03/08 09:30:30;;;;;;;2.15;1.23;;;4.40;67.30;;;;;;5050422;28;20450;-70
2021/03/08 09:33:06;;;;;;;5.85;1.30;;;4.50;65.60;;;;;;5051874;28;20370;-69
2021/03/08 09:35:40;;;;;;;3.65;1.48;;;4.50;61.90;;;;;;5047786;28;20037;-69
2021/03/08 09:38:17;;;;;;;4.13;1.53;;;4.40;60.10;;;;;;5066472;28;20025;-69
2021/03/08 09:40:46;;;;;;;4.18;1.20;;;4.40;61.70;;;;;;5054161;28;20036;-70
2021/03/08 09:43:35;;;;;;;2.30;1.20;;;4.40;61.60;;;;;;5051503;28;20115;-70
2021/03/08 09:46:07;;;;;;;2.72;1.20;;;4.50;62.20;;;;;;5054395;28;20036;-70
2021/03/08 09:48:38;;;;;;;2.40;1.08;;;4.60;63.40;;;;;;5051622;28;20033;-70
2021/03/08 09:51:10;;;;;;;4.28;1.60;;;4.70;62.60;;;;;;5052283;28;20047;-70
2021/03/08 09:53:38;;;;;;;2.20;1.50;;;4.70;60.20;;;;;;5056256;28;20035;-70
2021/03/08 09:56:06;;;;;;;6.38;2.05;;;4.70;59.50;;;;;;5074132;28;20035;-69
2021/03/08 09:58:32;;;;;;;4.55;2.08;;;4.70;60.10;;;;;;5048520;28;20051;-69
2021/03/08 10:00:59;;;;;;;5.85;1.90;;;4.80;60.50;;;;;;5032729;28;20033;-70
2021/03/08 10:03:25;;;;;;;4.40;1.50;;;4.90;58.70;;;;;;5070066;28;20052;-69
2021/03/08 10:05:55;;;;;;;2.92;1.23;;;4.80;55.10;;;;;;5089190;28;20033;-70
2021/03/08 10:08:29;;;;;;;2.97;1.50;;;4.80;53.50;;;;;;5063437;28;20040;-71
2021/03/08 10:10:55;;;;;;;2.83;1.70;;;4.80;54.60;;;;;;5063771;28;20122;-71
2021/03/08 10:13:23;;;;;;;2.30;1.20;;;4.80;56.50;;;;;;5054904;28;20052;-71
2021/03/08 10:15:56;;;;;;;2.13;1.00;;;4.90;57.70;;;;;;5089512;28;20397;-71
2021/03/08 10:18:32;;;;;;;3.95;1.60;;;5.00;58.00;;;;;;5066263;28;20029;-71
2021/03/08 10:21:04;;;;;;;2.78;1.40;;;5.00;57.50;;;;;;5074421;28;20021;-70
2021/03/08 10:23:35;;;;;;;1.58;1.20;;;5.10;55.30;;;;;;5068351;28;20120;-70
2021/03/08 10:26:13;;;;;;;1.23;0.80;;;5.20;54.40;;;;;;5073119;28;20021;-70
2021/03/08 10:28:45;;;;;;;2.03;1.05;;;5.20;53.70;;;;;;5061691;28;20027;-71
2021/03/08 10:31:19;;;;;;;1.83;0.95;;;5.30;54.70;;;;;;5050161;28;20075;-71
2021/03/08 10:33:47;;;;;;;1.15;0.85;;;5.30;53.10;;;;;;5050989;28;20481;-71
2021/03/08 10:36:22;;;;;;;4.57;1.05;;;5.40;51.70;;;;;;5053180;28;20033;-71
2021/03/08 10:39:02;;;;;;;2.65;1.10;;;5.40;51.50;;;;;;5047120;28;20120;-70
2021/03/08 10:41:30;;;;;;;2.92;1.20;;;5.30;47.80;;;;;;5050513;28;20072;-68
2021/03/08 10:43:57;;;;;;;1.25;1.00;;;5.40;48.50;;;;;;5050127;28;20090;-70
2021/03/08 10:46:39;;;;;;;2.80;1.02;;;5.30;47.00;;;;;;5048279;28;20132;-69
2021/03/08 10:49:07;;;;;;;3.78;1.20;;;5.30;48.90;;;;;;5045584;28;20068;-70
2021/03/08 10:51:34;;;;;;;3.08;1.02;;;5.40;49.10;;;;;;5042389;28;20196;-70
2021/03/08 10:54:05;;;;;;;2.90;1.27;;;5.50;50.40;;;;;;5053064;28;20426;-70
2021/03/08 10:56:32;;;;;;;1.77;1.33;;;5.60;51.00;;;;;;5052406;28;20035;-70
2021/03/08 10:58:58;;;;;;;2.83;1.00;;;5.70;50.40;;;;;;5050667;28;20498;-70
2021/03/08 11:01:25;;;;;;;3.13;1.75;;;5.70;49.40;;;;;;5033467;28;20120;-70
2021/03/08 11:03:52;;;;;;;2.80;1.10;;;5.80;47.40;;;;;;5044436;28;20029;-69
2021/03/08 11:06:19;;;;;;;2.60;1.33;;;5.80;46.70;;;;;;5039956;28;20047;-69
2021/03/08 11:08:55;;;;;;;1.58;0.90;;;5.70;45.50;;;;;;5044850;28;20135;-69
2021/03/08 11:11:24;;;;;;;1.65;0.93;;;5.60;46.40;;;;;;5052072;28;20099;-69
2021/03/08 11:13:50;;;;;;;2.15;1.30;;;5.70;48.00;;;;;;5045852;28;20119;-68
2021/03/08 11:16:16;;;;;;;2.42;1.50;;;5.70;45.80;;;;;;5051090;28;20074;-69
2021/03/08 11:18:43;;;;;;;1.38;0.90;;;5.60;45.80;;;;;;5043906;28;20049;-69
2021/03/08 11:21:19;;;;;;;2.00;1.10;;;5.70;44.30;;;;;;5036407;28;20382;-69
2021/03/08 11:23:44;;;;;;;2.30;1.15;;;5.70;45.80;;;;;;5040262;28;20068;-68
2021/03/08 11:26:10;;;;;;;4.68;1.10;;;5.70;45.40;;;;;;5051024;28;20127;-68
2021/03/08 11:28:41;;;;;;;3.88;1.45;;;5.80;45.60;;;;;;5052018;28;20382;-68
2021/03/08 11:31:21;;;;;;;5.07;1.20;;;5.80;45.90;;;;;;5049444;28;20036;-68
2021/03/08 11:33:53;;;;;;;3.35;0.95;;;5.90;47.10;;;;;;5065122;28;20028;-67
2021/03/08 11:36:33;;;;;;;1.35;1.00;;;6.00;47.80;;;;;;5076802;28;20033;-68
2021/03/08 11:39:05;;;;;;;3.10;1.40;;;6.10;45.70;;;;;;5061102;28;20385;-66
2021/03/08 11:41:31;;;;;;;4.10;1.20;;;6.20;46.50;;;;;;5059589;28;20070;-67
2021/03/08 11:43:57;;;;;;;3.70;1.05;;;6.30;47.00;;;;;;5055194;28;20100;-65
2021/03/08 11:46:22;;;;;;;3.78;1.10;;;6.30;47.00;;;;;;5051131;28;20037;-68
2021/03/08 11:48:48;;;;;;;3.22;0.90;;;6.30;45.20;;;;;;5058476;28;20119;-68
2021/03/08 11:51:14;;;;;;;2.30;1.00;;;6.40;45.20;;;;;;5059956;28;20500;-67
2021/03/08 11:53:39;;;;;;;1.77;1.10;;;6.40;45.00;;;;;;5057368;28;20029;-67
2021/03/08 11:56:05;;;;;;;3.70;1.42;;;6.40;45.70;;;;;;5083024;28;20050;-67
2021/03/08 11:58:30;;;;;;;2.38;1.17;;;6.50;46.00;;;;;;5060370;28;20041;-67
2021/03/08 12:00:59;;;;;;;3.15;1.08;;;6.50;46.10;;;;;;5070593;28;20039;-68
2021/03/08 12:03:25;;;;;;;1.70;0.93;;;6.60;46.70;;;;;;5043660;28;20044;-67
2021/03/08 12:05:51;;;;;;;2.60;0.90;;;6.80;46.80;;;;;;5044863;28;20486;-67
2021/03/08 12:08:16;;;;;;;3.80;1.10;;;6.80;46.40;;;;;;5040297;28;20025;-68
2021/03/08 12:10:42;;;;;;;3.20;1.35;;;6.90;47.10;;;;;;5051507;28;20090;-67
2021/03/08 12:13:07;;;;;;;2.40;0.75;;;7.00;47.20;;;;;;5050751;28;20032;-67
2021/03/08 12:15:33;;;;;;;3.97;1.25;;;7.00;44.70;;;;;;5071267;28;20546;-68
2021/03/08 12:17:58;;;;;;;4.35;1.00;;;6.90;43.20;;;;;;5056553;28;20052;-67
2021/03/08 12:20:24;;;;;;;2.67;0.95;;;6.90;44.60;;;;;;5049339;28;20377;-67
2021/03/08 12:22:49;;;;;;;3.78;1.00;;;6.90;44.50;;;;;;5048664;28;20028;-67
2021/03/08 12:25:15;;;;;;;1.67;0.90;;;7.00;44.60;;;;;;5069236;28;20036;-67
2021/03/08 12:27:41;;;;;;;5.38;1.17;;;7.00;43.00;;;;;;5057814;28;20496;-67
2021/03/08 12:30:07;;;;;;;2.13;1.02;;;6.90;43.20;;;;;;5064279;28;20433;-67
2021/03/08 12:32:32;;;;;;;3.05;0.90;;;7.00;43.70;;;;;;5050263;28;20028;-67
2021/03/08 12:34:58;;;;;;;2.28;1.05;;;7.00;42.50;;;;;;5048410;28;20017;-67
2021/03/08 12:37:24;;;;;;;2.28;1.08;;;7.00;42.30;;;;;;5038805;28;20037;-68
2021/03/08 12:39:49;;;;;;;2.70;1.60;;;7.00;43.40;;;;;;5045262;28;20029;-66
2021/03/08 12:42:15;;;;;;;3.45;1.40;;;7.00;41.50;;;;;;5049825;28;20025;-68
2021/03/08 12:44:40;;;;;;;4.05;1.70;;;6.90;40.10;;;;;;5050426;28;20029;-68
2021/03/08 12:47:06;;;;;;;2.17;1.10;;;6.90;40.20;;;;;;5049606;28;20117;-67
2021/03/08 12:49:31;;;;;;;4.13;0.90;;;6.80;41.40;;;;;;5045315;28;20037;-67
2021/03/08 12:51:56;;;;;;;2.20;1.20;;;6.90;42.60;;;;;;5055630;28;20022;-67
2021/03/08 12:54:22;;;;;;;3.38;1.00;;;6.90;43.00;;;;;;5049671;28;20159;-67
2021/03/08 12:56:48;;;;;;;3.63;2.00;;;7.00;43.50;;;;;;5049315;28;20024;-66
2021/03/08 12:59:13;;;;;;;4.72;1.42;;;7.10;43.80;;;;;;5045015;28;20021;-68
2021/03/08 13:01:38;;;;;;;3.72;1.55;;;7.20;42.70;;;;;;5046036;28;20028;-68
2021/03/08 13:04:04;;;;;;;1.98;1.30;;;7.20;42.50;;;;;;5043678;28;20104;-68
2021/03/08 13:06:29;;;;;;;3.83;0.98;;;7.20;41.70;;;;;;5062468;28;20028;-68